sensor_id;sensor_type;location;lat;lon;timestamp;temperature;humidity
38265;DHT22;24062;47.480;8.768;2022-12-07T00:01:06;21.90;52.70
38265;DHT22;24062;47.480;8.768;2022-12-07T00:03:34;21.90;52.80
38265;DHT22;24062;47.480;8.768;2022-12-07T00:06:02;21.80;52.80
38265;DHT22;24062;47.480;8.768;2022-12-07T00:08:30;21.80;52.80
38265;DHT22;24062;47.480;8.768;2022-12-07T00:11:01;21.80;52.80
38265;DHT22;24062;47.480;8.768;2022-12-07T00:13:29;21.80;52.90
38265;DHT22;24062;47.480;8.768;2022-12-07T00:15:59;21.80;52.90
38265;DHT22;24062;47.480;8.768;2022-12-07T00:18:26;21.70;52.90
38265;DHT22;24062;47.480;8.768;2022-12-07T00:20:53;21.70;52.90
38265;DHT22;24062;47.480;8.768;2022-12-07T00:23:25;21.70;53.00
38265;DHT22;24062;47.480;8.768;2022-12-07T00:25:53;21.60;52.90
38265;DHT22;24062;47.480;8.768;2022-12-07T00:28:20;21.60;53.00
38265;DHT22;24062;47.480;8.768;2022-12-07T00:30:47;21.60;53.00
38265;DHT22;24062;47.480;8.768;2022-12-07T00:33:14;21.60;53.10
38265;DHT22;24062;47.480;8.768;2022-12-07T00:35:41;21.60;53.10
38265;DHT22;24062;47.480;8.768;2022-12-07T00:38:08;21.60;53.10
38265;DHT22;24062;47.480;8.768;2022-12-07T00:40:34;21.50;53.10
38265;DHT22;24062;47.480;8.768;2022-12-07T00:43:03;21.50;53.20
38265;DHT22;24062;47.480;8.768;2022-12-07T00:45:29;21.50;53.20
38265;DHT22;24062;47.480;8.768;2022-12-07T00:47:56;21.50;53.20
38265;DHT22;24062;47.480;8.768;2022-12-07T00:50:23;21.40;53.10
38265;DHT22;24062;47.480;8.768;2022-12-07T00:52:50;21.40;53.20
38265;DHT22;24062;47.480;8.768;2022-12-07T00:55:17;21.40;53.30
38265;DHT22;24062;47.480;8.768;2022-12-07T00:57:44;21.40;53.30
38265;DHT22;24062;47.480;8.768;2022-12-07T01:00:13;21.40;53.20
38265;DHT22;24062;47.480;8.768;2022-12-07T01:02:40;21.40;53.30
38265;DHT22;24062;47.480;8.768;2022-12-07T01:05:07;21.30;53.20
38265;DHT22;24062;47.480;8.768;2022-12-07T01:07:34;21.30;53.20
38265;DHT22;24062;47.480;8.768;2022-12-07T01:10:01;21.30;53.20
38265;DHT22;24062;47.480;8.768;2022-12-07T01:12:28;21.30;53.20
38265;DHT22;24062;47.480;8.768;2022-12-07T01:14:55;21.20;53.20
38265;DHT22;24062;47.480;8.768;2022-12-07T01:17:23;21.20;53.80
38265;DHT22;24062;47.480;8.768;2022-12-07T01:19:50;21.20;53.30
38265;DHT22;24062;47.480;8.768;2022-12-07T01:22:17;21.20;53.30
38265;DHT22;24062;47.480;8.768;2022-12-07T01:24:44;21.10;53.20
38265;DHT22;24062;47.480;8.768;2022-12-07T01:27:12;21.20;53.30
38265;DHT22;24062;47.480;8.768;2022-12-07T01:29:39;21.10;53.20
38265;DHT22;24062;47.480;8.768;2022-12-07T01:32:06;21.10;53.30
38265;DHT22;24062;47.480;8.768;2022-12-07T01:34:34;21.10;53.30
38265;DHT22;24062;47.480;8.768;2022-12-07T01:37:01;21.00;53.30
38265;DHT22;24062;47.480;8.768;2022-12-07T01:39:28;21.10;53.30
38265;DHT22;24062;47.480;8.768;2022-12-07T01:41:55;21.10;53.30
38265;DHT22;24062;47.480;8.768;2022-12-07T01:44:24;21.00;53.30
38265;DHT22;24062;47.480;8.768;2022-12-07T01:46:53;21.00;53.30
38265;DHT22;24062;47.480;8.768;2022-12-07T01:49:26;21.00;53.30
38265;DHT22;24062;47.480;8.768;2022-12-07T01:52:01;21.00;53.30
38265;DHT22;24062;47.480;8.768;2022-12-07T01:54:30;21.00;53.40
38265;DHT22;24062;47.480;8.768;2022-12-07T01:56:58;21.00;53.40
38265;DHT22;24062;47.480;8.768;2022-12-07T01:59:26;21.00;53.40
38265;DHT22;24062;47.480;8.768;2022-12-07T02:01:54;20.90;53.30
38265;DHT22;24062;47.480;8.768;2022-12-07T02:04:22;20.90;53.30
38265;DHT22;24062;47.480;8.768;2022-12-07T02:06:50;20.90;53.30
38265;DHT22;24062;47.480;8.768;2022-12-07T02:09:19;20.90;53.40
38265;DHT22;24062;47.480;8.768;2022-12-07T02:11:46;20.80;53.30
38265;DHT22;24062;47.480;8.768;2022-12-07T02:14:13;20.80;53.40
38265;DHT22;24062;47.480;8.768;2022-12-07T02:16:49;20.80;53.40
38265;DHT22;24062;47.480;8.768;2022-12-07T02:22:31;20.80;53.40
38265;DHT22;24062;47.480;8.768;2022-12-07T02:25:08;20.80;53.40
38265;DHT22;24062;47.480;8.768;2022-12-07T02:27:40;20.80;53.40
38265;DHT22;24062;47.480;8.768;2022-12-07T02:30:12;20.70;53.40
38265;DHT22;24062;47.480;8.768;2022-12-07T02:32:44;20.70;53.40
38265;DHT22;24062;47.480;8.768;2022-12-07T02:35:17;20.70;53.40
38265;DHT22;24062;47.480;8.768;2022-12-07T02:37:53;20.70;53.50
38265;DHT22;24062;47.480;8.768;2022-12-07T02:40:29;20.70;53.50
38265;DHT22;24062;47.480;8.768;2022-12-07T02:43:03;20.70;53.50
38265;DHT22;24062;47.480;8.768;2022-12-07T02:45:34;20.80;53.40
38265;DHT22;24062;47.480;8.768;2022-12-07T02:48:04;20.90;53.30
38265;DHT22;24062;47.480;8.768;2022-12-07T02:50:32;21.00;53.20
38265;DHT22;24062;47.480;8.768;2022-12-07T02:52:59;21.10;53.00
38265;DHT22;24062;47.480;8.768;2022-12-07T02:55:29;21.30;53.50
38265;DHT22;24062;47.480;8.768;2022-12-07T02:58:11;21.50;52.80
38265;DHT22;24062;47.480;8.768;2022-12-07T03:00:49;21.70;52.50
38265;DHT22;24062;47.480;8.768;2022-12-07T03:03:18;21.90;52.30
38265;DHT22;24062;47.480;8.768;2022-12-07T03:06:03;22.00;52.10
38265;DHT22;24062;47.480;8.768;2022-12-07T03:08:38;22.10;51.90
38265;DHT22;24062;47.480;8.768;2022-12-07T03:11:08;22.20;51.80
38265;DHT22;24062;47.480;8.768;2022-12-07T03:13:40;22.30;51.70
38265;DHT22;24062;47.480;8.768;2022-12-07T03:16:14;22.40;51.60
38265;DHT22;24062;47.480;8.768;2022-12-07T03:18:46;22.40;51.60
38265;DHT22;24062;47.480;8.768;2022-12-07T03:21:17;22.50;51.50
38265;DHT22;24062;47.480;8.768;2022-12-07T03:23:48;22.50;51.40
38265;DHT22;24062;47.480;8.768;2022-12-07T03:26:16;22.60;51.30
38265;DHT22;24062;47.480;8.768;2022-12-07T03:28:49;22.70;51.30
38265;DHT22;24062;47.480;8.768;2022-12-07T03:31:21;22.70;51.10
38265;DHT22;24062;47.480;8.768;2022-12-07T03:33:53;22.80;51.00
38265;DHT22;24062;47.480;8.768;2022-12-07T03:36:27;22.80;50.90
38265;DHT22;24062;47.480;8.768;2022-12-07T03:38:59;22.80;50.80
38265;DHT22;24062;47.480;8.768;2022-12-07T03:41:28;22.90;50.90
38265;DHT22;24062;47.480;8.768;2022-12-07T03:43:56;22.90;50.80
38265;DHT22;24062;47.480;8.768;2022-12-07T03:46:32;22.90;50.70
38265;DHT22;24062;47.480;8.768;2022-12-07T03:49:06;22.90;50.70
38265;DHT22;24062;47.480;8.768;2022-12-07T03:51:39;23.00;50.60
38265;DHT22;24062;47.480;8.768;2022-12-07T03:54:13;23.00;50.50
38265;DHT22;24062;47.480;8.768;2022-12-07T03:56:42;23.10;50.50
38265;DHT22;24062;47.480;8.768;2022-12-07T03:59:11;23.10;50.40
38265;DHT22;24062;47.480;8.768;2022-12-07T04:01:41;23.10;50.30
38265;DHT22;24062;47.480;8.768;2022-12-07T04:04:08;23.10;50.20
38265;DHT22;24062;47.480;8.768;2022-12-07T04:06:35;23.20;50.20
38265;DHT22;24062;47.480;8.768;2022-12-07T04:09:03;23.20;50.20
38265;DHT22;24062;47.480;8.768;2022-12-07T04:11:30;23.20;50.20
38265;DHT22;24062;47.480;8.768;2022-12-07T04:13:57;23.20;50.10
38265;DHT22;24062;47.480;8.768;2022-12-07T04:16:42;23.20;50.10
38265;DHT22;24062;47.480;8.768;2022-12-07T04:19:09;23.20;50.10
38265;DHT22;24062;47.480;8.768;2022-12-07T04:21:36;23.20;50.00
38265;DHT22;24062;47.480;8.768;2022-12-07T04:24:03;23.30;50.00
38265;DHT22;24062;47.480;8.768;2022-12-07T04:26:30;23.30;49.90
38265;DHT22;24062;47.480;8.768;2022-12-07T04:28:57;23.40;50.00
38265;DHT22;24062;47.480;8.768;2022-12-07T04:31:24;23.40;49.90
38265;DHT22;24062;47.480;8.768;2022-12-07T04:33:52;23.40;49.90
38265;DHT22;24062;47.480;8.768;2022-12-07T04:36:19;23.40;49.80
38265;DHT22;24062;47.480;8.768;2022-12-07T04:38:47;23.40;49.80
38265;DHT22;24062;47.480;8.768;2022-12-07T04:41:14;23.40;49.80
38265;DHT22;24062;47.480;8.768;2022-12-07T04:43:41;23.30;49.70
38265;DHT22;24062;47.480;8.768;2022-12-07T04:46:08;23.40;49.90
38265;DHT22;24062;47.480;8.768;2022-12-07T04:48:35;23.40;49.80
38265;DHT22;24062;47.480;8.768;2022-12-07T04:51:04;23.50;49.80
38265;DHT22;24062;47.480;8.768;2022-12-07T04:53:31;23.50;49.70
38265;DHT22;24062;47.480;8.768;2022-12-07T04:55:58;23.50;50.30
38265;DHT22;24062;47.480;8.768;2022-12-07T04:58:26;23.50;49.60
38265;DHT22;24062;47.480;8.768;2022-12-07T05:00:54;23.60;49.70
38265;DHT22;24062;47.480;8.768;2022-12-07T05:03:21;23.50;49.60
38265;DHT22;24062;47.480;8.768;2022-12-07T05:05:48;23.60;49.60
38265;DHT22;24062;47.480;8.768;2022-12-07T05:08:16;23.60;49.60
38265;DHT22;24062;47.480;8.768;2022-12-07T05:10:44;23.50;49.50
38265;DHT22;24062;47.480;8.768;2022-12-07T05:13:10;23.60;49.60
38265;DHT22;24062;47.480;8.768;2022-12-07T05:15:37;23.60;49.60
38265;DHT22;24062;47.480;8.768;2022-12-07T05:18:04;23.60;49.50
38265;DHT22;24062;47.480;8.768;2022-12-07T05:20:31;23.60;49.40
38265;DHT22;24062;47.480;8.768;2022-12-07T05:22:58;23.60;49.40
38265;DHT22;24062;47.480;8.768;2022-12-07T05:25:27;23.60;49.20
38265;DHT22;24062;47.480;8.768;2022-12-07T05:27:55;23.60;49.30
38265;DHT22;24062;47.480;8.768;2022-12-07T05:30:22;23.70;49.30
38265;DHT22;24062;47.480;8.768;2022-12-07T05:32:49;23.60;49.30
38265;DHT22;24062;47.480;8.768;2022-12-07T05:35:16;23.60;49.30
38265;DHT22;24062;47.480;8.768;2022-12-07T05:37:43;23.60;49.40
38265;DHT22;24062;47.480;8.768;2022-12-07T05:40:11;23.60;49.50
38265;DHT22;24062;47.480;8.768;2022-12-07T05:42:40;23.60;49.60
38265;DHT22;24062;47.480;8.768;2022-12-07T05:45:08;23.60;49.60
38265;DHT22;24062;47.480;8.768;2022-12-07T05:47:36;23.60;49.50
38265;DHT22;24062;47.480;8.768;2022-12-07T05:50:04;23.70;49.60
38265;DHT22;24062;47.480;8.768;2022-12-07T05:52:31;23.70;49.60
38265;DHT22;24062;47.480;8.768;2022-12-07T05:54:58;23.70;49.60
38265;DHT22;24062;47.480;8.768;2022-12-07T05:57:25;23.70;49.60
38265;DHT22;24062;47.480;8.768;2022-12-07T05:59:53;23.60;49.60
38265;DHT22;24062;47.480;8.768;2022-12-07T06:02:19;23.60;49.60
38265;DHT22;24062;47.480;8.768;2022-12-07T06:04:46;23.60;49.70
38265;DHT22;24062;47.480;8.768;2022-12-07T06:07:15;23.60;49.80
38265;DHT22;24062;47.480;8.768;2022-12-07T06:09:42;23.70;49.90
38265;DHT22;24062;47.480;8.768;2022-12-07T06:12:10;23.70;49.90
38265;DHT22;24062;47.480;8.768;2022-12-07T06:14:56;23.70;49.80
38265;DHT22;24062;47.480;8.768;2022-12-07T06:17:22;23.80;49.90
38265;DHT22;24062;47.480;8.768;2022-12-07T06:19:49;23.80;49.80
38265;DHT22;24062;47.480;8.768;2022-12-07T06:22:17;23.80;49.70
38265;DHT22;24062;47.480;8.768;2022-12-07T06:24:44;23.80;49.80
38265;DHT22;24062;47.480;8.768;2022-12-07T06:27:11;23.70;49.70
38265;DHT22;24062;47.480;8.768;2022-12-07T06:29:38;23.70;49.70
38265;DHT22;24062;47.480;8.768;2022-12-07T06:32:06;23.60;49.60
38265;DHT22;24062;47.480;8.768;2022-12-07T06:34:33;23.60;49.70
38265;DHT22;24062;47.480;8.768;2022-12-07T06:37:00;23.50;49.80
38265;DHT22;24062;47.480;8.768;2022-12-07T06:39:28;23.40;49.80
38265;DHT22;24062;47.480;8.768;2022-12-07T06:41:55;23.30;49.80
38265;DHT22;24062;47.480;8.768;2022-12-07T06:44:23;23.30;50.00
38265;DHT22;24062;47.480;8.768;2022-12-07T06:46:50;23.20;50.00
38265;DHT22;24062;47.480;8.768;2022-12-07T06:49:19;23.20;50.10
38265;DHT22;24062;47.480;8.768;2022-12-07T06:51:46;23.20;50.10
38265;DHT22;24062;47.480;8.768;2022-12-07T06:54:14;23.30;50.70
38265;DHT22;24062;47.480;8.768;2022-12-07T06:56:42;23.30;50.00
38265;DHT22;24062;47.480;8.768;2022-12-07T06:59:09;23.40;50.00
38265;DHT22;24062;47.480;8.768;2022-12-07T07:01:36;23.50;50.00
38265;DHT22;24062;47.480;8.768;2022-12-07T07:04:03;23.50;49.90
38265;DHT22;24062;47.480;8.768;2022-12-07T07:06:31;23.60;49.80
38265;DHT22;24062;47.480;8.768;2022-12-07T07:08:58;23.70;49.80
38265;DHT22;24062;47.480;8.768;2022-12-07T07:11:25;23.70;49.70
38265;DHT22;24062;47.480;8.768;2022-12-07T07:13:52;23.70;49.60
38265;DHT22;24062;47.480;8.768;2022-12-07T07:16:22;23.70;49.50
38265;DHT22;24062;47.480;8.768;2022-12-07T07:18:49;23.70;49.40
38265;DHT22;24062;47.480;8.768;2022-12-07T07:21:16;23.70;49.50
38265;DHT22;24062;47.480;8.768;2022-12-07T07:23:44;23.70;49.40
38265;DHT22;24062;47.480;8.768;2022-12-07T07:26:11;23.80;49.50
38265;DHT22;24062;47.480;8.768;2022-12-07T07:28:38;23.80;49.40
38265;DHT22;24062;47.480;8.768;2022-12-07T07:31:05;23.80;49.30
38265;DHT22;24062;47.480;8.768;2022-12-07T07:33:32;23.80;49.30
38265;DHT22;24062;47.480;8.768;2022-12-07T07:35:59;23.90;49.30
38265;DHT22;24062;47.480;8.768;2022-12-07T07:38:26;23.80;49.20
38265;DHT22;24062;47.480;8.768;2022-12-07T07:40:54;23.90;49.30
38265;DHT22;24062;47.480;8.768;2022-12-07T07:43:21;23.80;49.10
38265;DHT22;24062;47.480;8.768;2022-12-07T07:45:48;23.80;49.10
38265;DHT22;24062;47.480;8.768;2022-12-07T07:48:16;23.80;49.80
38265;DHT22;24062;47.480;8.768;2022-12-07T07:50:43;23.80;49.20
38265;DHT22;24062;47.480;8.768;2022-12-07T07:53:10;23.80;49.20
38265;DHT22;24062;47.480;8.768;2022-12-07T07:55:37;23.90;49.20
38265;DHT22;24062;47.480;8.768;2022-12-07T07:58:05;23.90;49.10
38265;DHT22;24062;47.480;8.768;2022-12-07T08:00:32;23.90;49.10
38265;DHT22;24062;47.480;8.768;2022-12-07T08:02:59;23.90;49.00
38265;DHT22;24062;47.480;8.768;2022-12-07T08:05:25;24.00;49.10
38265;DHT22;24062;47.480;8.768;2022-12-07T08:07:52;23.90;49.00
38265;DHT22;24062;47.480;8.768;2022-12-07T08:10:19;24.00;49.00
38265;DHT22;24062;47.480;8.768;2022-12-07T08:12:46;23.90;49.00
38265;DHT22;24062;47.480;8.768;2022-12-07T08:15:32;23.90;49.00
38265;DHT22;24062;47.480;8.768;2022-12-07T08:17:59;23.90;49.00
38265;DHT22;24062;47.480;8.768;2022-12-07T08:20:26;23.80;49.00
38265;DHT22;24062;47.480;8.768;2022-12-07T08:22:53;23.90;49.00
38265;DHT22;24062;47.480;8.768;2022-12-07T08:25:20;24.00;49.00
38265;DHT22;24062;47.480;8.768;2022-12-07T08:27:48;24.00;49.00
38265;DHT22;24062;47.480;8.768;2022-12-07T08:30:15;24.00;48.90
38265;DHT22;24062;47.480;8.768;2022-12-07T08:32:44;24.00;48.80
38265;DHT22;24062;47.480;8.768;2022-12-07T08:35:12;24.00;48.90
38265;DHT22;24062;47.480;8.768;2022-12-07T08:37:39;24.00;48.90
38265;DHT22;24062;47.480;8.768;2022-12-07T08:40:08;24.00;48.80
38265;DHT22;24062;47.480;8.768;2022-12-07T08:42:35;23.90;48.80
38265;DHT22;24062;47.480;8.768;2022-12-07T08:45:07;23.90;48.80
38265;DHT22;24062;47.480;8.768;2022-12-07T08:47:35;23.90;48.80
38265;DHT22;24062;47.480;8.768;2022-12-07T08:50:06;23.90;48.80
38265;DHT22;24062;47.480;8.768;2022-12-07T08:52:34;24.00;48.90
38265;DHT22;24062;47.480;8.768;2022-12-07T08:55:02;24.00;48.80
38265;DHT22;24062;47.480;8.768;2022-12-07T08:57:30;24.00;48.70
38265;DHT22;24062;47.480;8.768;2022-12-07T08:59:59;24.10;48.70
38265;DHT22;24062;47.480;8.768;2022-12-07T09:02:26;24.10;48.70
38265;DHT22;24062;47.480;8.768;2022-12-07T09:04:53;24.00;48.60
38265;DHT22;24062;47.480;8.768;2022-12-07T09:07:21;24.10;48.70
38265;DHT22;24062;47.480;8.768;2022-12-07T09:09:48;24.00;48.60
38265;DHT22;24062;47.480;8.768;2022-12-07T09:12:15;24.00;48.60
38265;DHT22;24062;47.480;8.768;2022-12-07T09:14:42;24.00;48.70
38265;DHT22;24062;47.480;8.768;2022-12-07T09:17:10;24.00;48.70
38265;DHT22;24062;47.480;8.768;2022-12-07T09:19:38;24.10;48.70
38265;DHT22;24062;47.480;8.768;2022-12-07T09:22:07;24.10;48.70
38265;DHT22;24062;47.480;8.768;2022-12-07T09:24:35;24.20;48.60
38265;DHT22;24062;47.480;8.768;2022-12-07T09:27:02;24.20;48.50
38265;DHT22;24062;47.480;8.768;2022-12-07T09:29:29;24.20;48.50
38265;DHT22;24062;47.480;8.768;2022-12-07T09:31:56;24.20;48.50
38265;DHT22;24062;47.480;8.768;2022-12-07T09:34:23;24.20;48.50
38265;DHT22;24062;47.480;8.768;2022-12-07T09:36:51;24.20;48.50
38265;DHT22;24062;47.480;8.768;2022-12-07T09:39:18;24.20;48.50
38265;DHT22;24062;47.480;8.768;2022-12-07T09:41:47;24.20;48.50
38265;DHT22;24062;47.480;8.768;2022-12-07T09:44:17;24.20;48.50
38265;DHT22;24062;47.480;8.768;2022-12-07T09:46:46;24.20;48.50
38265;DHT22;24062;47.480;8.768;2022-12-07T09:49:16;24.20;48.40
38265;DHT22;24062;47.480;8.768;2022-12-07T09:51:44;24.30;48.50
38265;DHT22;24062;47.480;8.768;2022-12-07T09:54:14;24.30;48.40
38265;DHT22;24062;47.480;8.768;2022-12-07T09:56:41;24.30;48.40
38265;DHT22;24062;47.480;8.768;2022-12-07T09:59:15;24.30;48.30
38265;DHT22;24062;47.480;8.768;2022-12-07T10:01:44;24.30;48.30
38265;DHT22;24062;47.480;8.768;2022-12-07T10:04:14;24.20;48.20
38265;DHT22;24062;47.480;8.768;2022-12-07T10:06:42;24.30;48.40
38265;DHT22;24062;47.480;8.768;2022-12-07T10:09:10;24.20;48.30
38265;DHT22;24062;47.480;8.768;2022-12-07T10:11:58;24.30;48.40
38265;DHT22;24062;47.480;8.768;2022-12-07T10:14:28;24.30;48.30
38265;DHT22;24062;47.480;8.768;2022-12-07T10:16:55;24.40;48.30
38265;DHT22;24062;47.480;8.768;2022-12-07T10:19:25;24.40;48.30
38265;DHT22;24062;47.480;8.768;2022-12-07T10:22:12;24.40;48.20
38265;DHT22;24062;47.480;8.768;2022-12-07T10:24:40;24.40;48.20
38265;DHT22;24062;47.480;8.768;2022-12-07T10:27:18;24.40;48.10
38265;DHT22;24062;47.480;8.768;2022-12-07T10:29:50;24.50;48.20
38265;DHT22;24062;47.480;8.768;2022-12-07T10:32:32;24.50;48.20
38265;DHT22;24062;47.480;8.768;2022-12-07T10:35:19;24.40;48.10
38265;DHT22;24062;47.480;8.768;2022-12-07T10:37:47;24.40;48.20
38265;DHT22;24062;47.480;8.768;2022-12-07T10:40:28;24.40;48.20
38265;DHT22;24062;47.480;8.768;2022-12-07T10:43:04;24.40;48.20
38265;DHT22;24062;47.480;8.768;2022-12-07T10:45:35;24.50;48.30
38265;DHT22;24062;47.480;8.768;2022-12-07T10:48:12;24.50;48.30
38265;DHT22;24062;47.480;8.768;2022-12-07T10:51:02;24.50;48.30
38265;DHT22;24062;47.480;8.768;2022-12-07T10:53:48;24.50;48.40
38265;DHT22;24062;47.480;8.768;2022-12-07T10:59:25;24.50;48.50
38265;DHT22;24062;47.480;8.768;2022-12-07T11:02:01;24.40;48.60
38265;DHT22;24062;47.480;8.768;2022-12-07T11:04:39;24.40;48.70
38265;DHT22;24062;47.480;8.768;2022-12-07T11:07:13;24.40;48.70
38265;DHT22;24062;47.480;8.768;2022-12-07T11:09:52;24.50;48.80
38265;DHT22;24062;47.480;8.768;2022-12-07T11:12:34;24.50;48.80
38265;DHT22;24062;47.480;8.768;2022-12-07T11:15:13;24.50;48.70
38265;DHT22;24062;47.480;8.768;2022-12-07T11:17:51;24.50;48.80
38265;DHT22;24062;47.480;8.768;2022-12-07T11:20:32;24.50;48.80
38265;DHT22;24062;47.480;8.768;2022-12-07T11:23:06;24.50;48.80
38265;DHT22;24062;47.480;8.768;2022-12-07T11:25:42;24.50;48.80
38265;DHT22;24062;47.480;8.768;2022-12-07T11:28:23;24.50;48.80
38265;DHT22;24062;47.480;8.768;2022-12-07T11:31:00;24.50;48.80
38265;DHT22;24062;47.480;8.768;2022-12-07T11:33:35;24.50;48.80
38265;DHT22;24062;47.480;8.768;2022-12-07T11:36:15;24.50;48.80
38265;DHT22;24062;47.480;8.768;2022-12-07T11:38:48;24.40;48.70
38265;DHT22;24062;47.480;8.768;2022-12-07T11:41:19;24.50;48.80
38265;DHT22;24062;47.480;8.768;2022-12-07T11:43:56;24.50;48.70
38265;DHT22;24062;47.480;8.768;2022-12-07T11:46:27;24.50;48.60
38265;DHT22;24062;47.480;8.768;2022-12-07T11:49:01;24.50;48.60
38265;DHT22;24062;47.480;8.768;2022-12-07T11:51:34;24.60;48.70
38265;DHT22;24062;47.480;8.768;2022-12-07T11:54:10;24.50;48.60
38265;DHT22;24062;47.480;8.768;2022-12-07T11:56:38;24.60;48.70
38265;DHT22;24062;47.480;8.768;2022-12-07T11:59:11;24.60;48.70
38265;DHT22;24062;47.480;8.768;2022-12-07T12:01:48;24.60;48.60
38265;DHT22;24062;47.480;8.768;2022-12-07T12:04:27;24.60;48.60
38265;DHT22;24062;47.480;8.768;2022-12-07T12:06:55;24.60;48.50
38265;DHT22;24062;47.480;8.768;2022-12-07T12:09:26;24.60;48.50
38265;DHT22;24062;47.480;8.768;2022-12-07T12:12:26;24.60;48.50
38265;DHT22;24062;47.480;8.768;2022-12-07T12:15:08;24.60;48.50
38265;DHT22;24062;47.480;8.768;2022-12-07T12:18:06;24.60;48.50
38265;DHT22;24062;47.480;8.768;2022-12-07T12:20:42;24.60;48.50
38265;DHT22;24062;47.480;8.768;2022-12-07T12:23:13;24.60;48.60
38265;DHT22;24062;47.480;8.768;2022-12-07T12:25:45;24.50;48.50
38265;DHT22;24062;47.480;8.768;2022-12-07T12:28:23;24.50;48.60
38265;DHT22;24062;47.480;8.768;2022-12-07T12:31:11;24.50;48.60
38265;DHT22;24062;47.480;8.768;2022-12-07T12:33:43;24.50;48.60
38265;DHT22;24062;47.480;8.768;2022-12-07T12:36:24;24.60;48.60
38265;DHT22;24062;47.480;8.768;2022-12-07T12:39:08;24.60;48.50
38265;DHT22;24062;47.480;8.768;2022-12-07T12:41:56;24.60;48.50
38265;DHT22;24062;47.480;8.768;2022-12-07T12:44:41;24.60;48.40
38265;DHT22;24062;47.480;8.768;2022-12-07T12:47:42;24.60;48.40
38265;DHT22;24062;47.480;8.768;2022-12-07T12:50:18;24.60;48.40
38265;DHT22;24062;47.480;8.768;2022-12-07T12:53:15;24.50;48.40
38265;DHT22;24062;47.480;8.768;2022-12-07T12:56:06;24.50;48.40
38265;DHT22;24062;47.480;8.768;2022-12-07T12:58:40;24.50;48.40
38265;DHT22;24062;47.480;8.768;2022-12-07T13:01:37;24.60;48.40
38265;DHT22;24062;47.480;8.768;2022-12-07T13:04:27;24.60;48.30
38265;DHT22;24062;47.480;8.768;2022-12-07T13:06:55;24.70;48.30
38265;DHT22;24062;47.480;8.768;2022-12-07T13:09:27;24.70;48.30
38265;DHT22;24062;47.480;8.768;2022-12-07T13:12:00;24.70;48.20
38265;DHT22;24062;47.480;8.768;2022-12-07T13:14:53;24.70;48.20
38265;DHT22;24062;47.480;8.768;2022-12-07T13:18:01;24.70;48.20
38265;DHT22;24062;47.480;8.768;2022-12-07T13:20:47;24.70;48.10
38265;DHT22;24062;47.480;8.768;2022-12-07T13:23:19;24.70;48.10
38265;DHT22;24062;47.480;8.768;2022-12-07T13:26:14;24.70;48.10
38265;DHT22;24062;47.480;8.768;2022-12-07T13:28:43;24.70;48.10
38265;DHT22;24062;47.480;8.768;2022-12-07T13:31:24;24.70;48.10
38265;DHT22;24062;47.480;8.768;2022-12-07T13:33:52;24.80;48.10
38265;DHT22;24062;47.480;8.768;2022-12-07T13:36:22;24.80;48.00
38265;DHT22;24062;47.480;8.768;2022-12-07T13:38:52;24.80;48.00
38265;DHT22;24062;47.480;8.768;2022-12-07T13:41:21;24.80;48.00
38265;DHT22;24062;47.480;8.768;2022-12-07T13:43:51;24.80;48.00
38265;DHT22;24062;47.480;8.768;2022-12-07T13:46:25;24.80;48.00
38265;DHT22;24062;47.480;8.768;2022-12-07T13:48:53;24.80;48.00
38265;DHT22;24062;47.480;8.768;2022-12-07T13:51:24;24.70;47.90
38265;DHT22;24062;47.480;8.768;2022-12-07T13:53:53;24.80;48.10
38265;DHT22;24062;47.480;8.768;2022-12-07T13:56:28;24.70;48.00
38265;DHT22;24062;47.480;8.768;2022-12-07T13:58:58;24.80;48.00
38265;DHT22;24062;47.480;8.768;2022-12-07T14:01:26;24.80;47.90
38265;DHT22;24062;47.480;8.768;2022-12-07T14:03:53;24.80;47.80
38265;DHT22;24062;47.480;8.768;2022-12-07T14:06:23;24.80;47.70
38265;DHT22;24062;47.480;8.768;2022-12-07T14:09:06;24.80;47.80
38265;DHT22;24062;47.480;8.768;2022-12-07T14:11:35;24.70;47.70
38265;DHT22;24062;47.480;8.768;2022-12-07T14:14:03;24.80;47.80
38265;DHT22;24062;47.480;8.768;2022-12-07T14:16:31;24.80;47.80
38265;DHT22;24062;47.480;8.768;2022-12-07T14:19:00;24.70;47.70
38265;DHT22;24062;47.480;8.768;2022-12-07T14:21:30;24.70;47.80
38265;DHT22;24062;47.480;8.768;2022-12-07T14:24:11;24.70;47.80
38265;DHT22;24062;47.480;8.768;2022-12-07T14:26:40;24.70;47.90
38265;DHT22;24062;47.480;8.768;2022-12-07T14:29:30;24.70;47.90
38265;DHT22;24062;47.480;8.768;2022-12-07T14:31:59;24.70;47.80
38265;DHT22;24062;47.480;8.768;2022-12-07T14:34:31;24.70;47.80
38265;DHT22;24062;47.480;8.768;2022-12-07T14:36:58;24.70;47.80
38265;DHT22;24062;47.480;8.768;2022-12-07T14:39:24;24.60;47.80
38265;DHT22;24062;47.480;8.768;2022-12-07T14:41:53;24.70;47.80
38265;DHT22;24062;47.480;8.768;2022-12-07T14:44:21;24.60;47.80
38265;DHT22;24062;47.480;8.768;2022-12-07T14:46:49;24.60;47.90
38265;DHT22;24062;47.480;8.768;2022-12-07T14:49:16;24.50;47.80
38265;DHT22;24062;47.480;8.768;2022-12-07T14:51:45;24.50;47.90
38265;DHT22;24062;47.480;8.768;2022-12-07T14:54:16;24.50;47.90
38265;DHT22;24062;47.480;8.768;2022-12-07T14:56:44;24.60;48.00
38265;DHT22;24062;47.480;8.768;2022-12-07T14:59:16;24.50;47.90
38265;DHT22;24062;47.480;8.768;2022-12-07T15:01:44;24.50;47.90
38265;DHT22;24062;47.480;8.768;2022-12-07T15:04:11;24.50;48.00
38265;DHT22;24062;47.480;8.768;2022-12-07T15:06:39;24.50;48.00
38265;DHT22;24062;47.480;8.768;2022-12-07T15:09:10;24.50;48.10
38265;DHT22;24062;47.480;8.768;2022-12-07T15:11:37;24.40;48.10
38265;DHT22;24062;47.480;8.768;2022-12-07T15:14:04;24.40;48.10
38265;DHT22;24062;47.480;8.768;2022-12-07T15:16:40;24.30;48.10
38265;DHT22;24062;47.480;8.768;2022-12-07T15:19:12;24.30;48.10
38265;DHT22;24062;47.480;8.768;2022-12-07T15:21:40;24.30;48.20
38265;DHT22;24062;47.480;8.768;2022-12-07T15:24:08;24.40;48.20
38265;DHT22;24062;47.480;8.768;2022-12-07T15:26:36;24.40;48.20
38265;DHT22;24062;47.480;8.768;2022-12-07T15:29:03;24.40;48.30
38265;DHT22;24062;47.480;8.768;2022-12-07T15:31:30;24.40;48.30
38265;DHT22;24062;47.480;8.768;2022-12-07T15:33:58;24.40;48.40
38265;DHT22;24062;47.480;8.768;2022-12-07T15:36:27;24.30;48.40
38265;DHT22;24062;47.480;8.768;2022-12-07T15:38:56;24.30;48.40
38265;DHT22;24062;47.480;8.768;2022-12-07T15:41:23;24.20;48.40
38265;DHT22;24062;47.480;8.768;2022-12-07T15:43:50;24.30;48.60
38265;DHT22;24062;47.480;8.768;2022-12-07T15:46:36;24.20;48.60
38265;DHT22;24062;47.480;8.768;2022-12-07T15:49:08;24.30;48.80
38265;DHT22;24062;47.480;8.768;2022-12-07T15:51:35;24.40;49.10
38265;DHT22;24062;47.480;8.768;2022-12-07T15:54:02;24.40;49.40
38265;DHT22;24062;47.480;8.768;2022-12-07T15:56:29;24.40;50.00
38265;DHT22;24062;47.480;8.768;2022-12-07T15:58:56;24.40;50.80